Time;durP1;ratioP1;P1;durP2;ratioP2;P2;SDS_P1;SDS_P2;PMS_P1;PMS_P2;Temp;Humidity;BMP_temperature;BMP_pressure;BME280_temperature;BME280_humidity;BME280_pressure;Samples;Min_cycle;Max_cycle;Signal;HPM_P1;HPM_P2
2022/09/01 00:00:22;;;;;;;;;;;;;;;21.33;60.36;99741.19;4430731;32;19981;-90
2022/09/01 00:02:47;;;;;;;;;;;;;;;21.18;60.36;99739.66;4411648;32;20049;-87
2022/09/01 00:05:13;;;;;;;;;;;;;;;21.15;60.34;99743.41;4424627;32;19989;-89
2022/09/01 00:07:38;;;;;;;;;;;;;;;21.08;60.34;99748.31;4438756;32;19976;-89
2022/09/01 00:10:04;;;;;;;;;;;;;;;21.12;60.35;99756.87;4411226;32;27299;-91
2022/09/01 00:12:29;;;;;;;;;;;;;;;20.94;60.34;99763.53;4425012;32;20764;-90
2022/09/01 00:14:54;;;;;;;;;;;;;;;20.92;60.33;99766.28;4412191;32;20017;-90
2022/09/01 00:17:20;;;;;;;;;;;;;;;20.77;60.34;99762.97;4419793;32;19992;-91
2022/09/01 00:19:45;;;;;;;;;;;;;;;20.67;60.32;99771.72;4419367;32;20334;-92
2022/09/01 00:22:10;;;;;;;;;;;;;;;20.58;60.32;99773.22;4424902;32;20057;-91
2022/09/01 00:24:35;;;;;;;;;;;;;;;20.57;60.32;99770.69;4412449;32;19981;-91
2022/09/01 00:27:01;;;;;;;;;;;;;;;20.59;60.31;99772.28;4413090;32;20001;-91
2022/09/01 00:29:27;;;;;;;;;;;;;;;20.69;60.32;99764.50;4426074;32;19977;-92
2022/09/01 00:31:52;;;;;;;;;;;;;;;20.42;60.31;99773.50;4414081;32;20019;-92
2022/09/01 00:34:17;;;;;;;;;;;;;;;20.38;60.31;99766.72;4416437;32;20328;-92
2022/09/01 00:36:43;;;;;;;;;;;;;;;20.46;60.31;99766.19;4426363;32;19990;-91
2022/09/01 00:39:08;;;;;;;;;;;;;;;20.35;60.31;99776.66;4427489;32;20003;-92
2022/09/01 00:41:34;;;;;;;;;;;;;;;20.23;60.30;99767.81;4412464;32;20373;-92
2022/09/01 00:44:00;;;;;;;;;;;;;;;20.15;60.30;99768.38;4412074;32;20035;-91
2022/09/01 00:46:27;;;;;;;;;;;;;;;20.18;60.30;99764.66;4424521;32;19992;-92
2022/09/01 00:48:53;;;;;;;;;;;;;;;20.00;60.29;99769.44;4411728;32;20048;-91
2022/09/01 00:51:18;;;;;;;;;;;;;;;19.90;60.28;99778.97;4411335;32;20064;-92
2022/09/01 00:53:44;;;;;;;;;;;;;;;20.01;60.29;99772.94;4411409;32;20019;-90
2022/09/01 00:56:10;;;;;;;;;;;;;;;20.10;60.29;99774.91;4411208;32;20311;-91
2022/09/01 00:58:35;;;;;;;;;;;;;;;19.94;60.28;99777.81;4410982;32;20012;-91
2022/09/01 01:01:01;;;;;;;;;;;;;;;20.06;60.28;99781.38;4423989;32;20282;-90
2022/09/01 01:03:29;;;;;;;;;;;;;;;20.04;60.29;99783.28;4437965;32;20024;-90
2022/09/01 01:05:54;;;;;;;;;;;;;;;19.91;60.29;99786.78;4438011;32;19981;-90
2022/09/01 01:08:33;;;;;;;;;;;;;;;19.72;60.27;99789.00;4411101;32;20354;-90
2022/09/01 01:10:59;;;;;;;;;;;;;;;19.70;60.28;99790.91;4424903;32;19993;-90
2022/09/01 01:13:24;;;;;;;;;;;;;;;19.80;60.27;99778.75;4423896;32;19966;-88
2022/09/01 01:15:50;;;;;;;;;;;;;;;19.91;60.29;99776.22;4411196;32;20379;-90
2022/09/01 01:18:15;;;;;;;;;;;;;;;20.08;60.29;99777.66;4410299;32;29559;-90
2022/09/01 01:23:35;;;;;;;;;;;;;;;19.97;60.28;99771.47;4414889;32;20033;-91
2022/09/01 01:26:03;;;;;;;;;;;;;;;19.97;60.28;99777.59;4410820;32;20044;-90
2022/09/01 01:28:30;;;;;;;;;;;;;;;19.88;60.27;99773.81;4423599;32;20369;-89
2022/09/01 01:31:04;;;;;;;;;;;;;;;19.66;60.26;99775.41;4412580;32;20384;-90
2022/09/01 01:33:31;;;;;;;;;;;;;;;19.37;60.24;99770.25;4414025;32;20345;-93
2022/09/01 01:35:56;;;;;;;;;;;;;;;19.22;60.24;99776.59;4414499;32;20035;-93
2022/09/01 01:38:21;;;;;;;;;;;;;;;19.37;60.24;99777.34;4412287;32;20006;-94
2022/09/01 01:40:47;;;;;;;;;;;;;;;19.43;60.25;99766.38;4427526;32;19989;-94
2022/09/01 01:43:21;;;;;;;;;;;;;;;19.29;60.24;99776.06;4413883;32;20334;-90
2022/09/01 01:45:50;;;;;;;;;;;;;;;19.40;60.26;99777.12;4426277;32;19978;-90
2022/09/01 01:48:23;;;;;;;;;;;;;;;19.47;60.26;99767.84;4410889;32;19993;-90
2022/09/01 01:50:48;;;;;;;;;;;;;;;19.56;60.26;99762.81;4425896;32;20103;-92
2022/09/01 01:53:15;;;;;;;;;;;;;;;19.53;60.25;99760.38;4413625;32;20029;-90
2022/09/01 01:55:42;;;;;;;;;;;;;;;19.60;60.26;99763.44;4413374;32;19981;-92
2022/09/01 01:58:10;;;;;;;;;;;;;;;19.57;60.26;99761.84;4436203;32;19986;-90
2022/09/01 02:00:36;;;;;;;;;;;;;;;19.41;60.25;99747.16;4420095;32;19993;-90
2022/09/01 02:03:02;;;;;;;;;;;;;;;19.42;60.24;99741.78;4441953;32;20341;-92
2022/09/01 02:05:28;;;;;;;;;;;;;;;19.33;60.25;99740.59;4422131;32;19991;-93
2022/09/01 02:07:58;;;;;;;;;;;;;;;19.10;60.23;99730.75;4427083;32;20047;-94
2022/09/01 02:10:29;;;;;;;;;;;;;;;19.09;60.23;99742.25;4437976;32;20005;-93
2022/09/01 02:12:56;;;;;;;;;;;;;;;19.07;60.22;99735.41;4421971;32;20049;-94
2022/09/01 02:15:21;;;;;;;;;;;;;;;18.98;60.22;99736.88;4416300;32;19977;-93
2022/09/01 02:17:47;;;;;;;;;;;;;;;18.95;60.22;99737.91;4427400;32;20034;-91
2022/09/01 02:20:15;;;;;;;;;;;;;;;19.14;60.23;99740.16;4427255;32;20296;-93
2022/09/01 02:22:40;;;;;;;;;;;;;;;19.25;60.24;99742.91;4415026;32;20020;-94
2022/09/01 02:25:06;;;;;;;;;;;;;;;19.28;60.24;99741.87;4414956;32;20330;-93
2022/09/01 02:27:35;;;;;;;;;;;;;;;19.11;60.23;99744.78;4428039;32;19993;-94
2022/09/01 02:30:01;;;;;;;;;;;;;;;19.15;60.23;99744.47;4415124;32;19993;-93
2022/09/01 02:32:26;;;;;;;;;;;;;;;19.00;60.22;99742.87;4415088;32;20008;-94
2022/09/01 02:34:52;;;;;;;;;;;;;;;19.09;60.23;99742.25;4414396;32;22657;-95
2022/09/01 02:37:24;;;;;;;;;;;;;;;19.03;60.23;99734.75;4415118;32;19989;-95
2022/09/01 02:39:49;;;;;;;;;;;;;;;19.10;60.23;99729.91;4415445;32;19989;-95
2022/09/01 02:42:15;;;;;;;;;;;;;;;19.02;60.23;99726.00;4414195;32;25840;-94
2022/09/01 02:44:42;;;;;;;;;;;;;;;18.65;60.20;99724.94;4427766;32;19981;-94
2022/09/01 02:47:08;;;;;;;;;;;;;;;18.59;60.20;99730.59;4404353;32;19989;-94
2022/09/01 02:49:34;;;;;;;;;;;;;;;18.46;60.20;99737.62;4427657;32;20017;-94
2022/09/01 02:52:01;;;;;;;;;;;;;;;18.66;60.20;99734.53;4427719;32;20034;-94
2022/09/01 02:54:27;;;;;;;;;;;;;;;18.60;60.20;99713.84;4414891;32;19985;-95
2022/09/01 02:56:53;;;;;;;;;;;;;;;18.60;60.20;99715.62;4415142;32;19974;-93
2022/09/01 02:59:20;;;;;;;;;;;;;;;18.75;60.21;99716.44;4412932;32;20298;-94
2022/09/01 03:01:46;;;;;;;;;;;;;;;18.88;60.22;99717.31;4427646;32;20049;-94
2022/09/01 03:04:11;;;;;;;;;;;;;;;18.63;60.21;99721.56;4427647;32;19965;-94
2022/09/01 03:06:37;;;;;;;;;;;;;;;18.59;60.20;99708.66;4414404;32;20336;-93
2022/09/01 03:09:04;;;;;;;;;;;;;;;18.64;60.21;99704.81;4414190;32;20323;-89
2022/09/01 03:11:30;;;;;;;;;;;;;;;18.63;60.21;99697.84;4412361;32;19978;-91
2022/09/01 03:13:55;;;;;;;;;;;;;;;18.52;60.20;99707.38;4412374;32;20299;-89
2022/09/01 03:16:23;;;;;;;;;;;;;;;18.50;60.20;99711.91;4426118;32;19981;-92
2022/09/01 03:18:49;;;;;;;;;;;;;;;18.34;60.18;99722.59;4414812;32;19989;-93
2022/09/01 03:21:16;;;;;;;;;;;;;;;18.52;60.20;99733.75;4414819;32;20342;-93
2022/09/01 03:23:44;;;;;;;;;;;;;;;18.29;60.18;99736.06;4412087;32;20525;-93
2022/09/01 03:26:10;;;;;;;;;;;;;;;18.33;60.19;99739.34;4412085;32;20043;-93
2022/09/01 03:28:36;;;;;;;;;;;;;;;18.33;60.19;99744.63;4413025;32;20021;-94
2022/09/01 03:31:01;;;;;;;;;;;;;;;18.37;60.19;99743.47;4415002;32;19957;-92
2022/09/01 03:33:27;;;;;;;;;;;;;;;18.46;60.20;99742.91;4413329;32;19970;-91
2022/09/01 03:35:52;;;;;;;;;;;;;;;18.29;60.18;99736.06;4417431;32;20027;-93
2022/09/01 03:38:20;;;;;;;;;;;;;;;18.56;60.20;99738.72;4414552;32;20030;-92
2022/09/01 03:40:46;;;;;;;;;;;;;;;18.51;60.20;99730.25;4415848;32;20115;-92
2022/09/01 03:43:12;;;;;;;;;;;;;;;18.49;60.20;99713.69;4428968;32;20017;-92
2022/09/01 03:45:37;;;;;;;;;;;;;;;18.31;60.19;99717.53;4440090;32;19962;-93
2022/09/01 03:48:08;;;;;;;;;;;;;;;18.16;60.18;99714.06;4416593;32;20038;-94
2022/09/01 03:50:38;;;;;;;;;;;;;;;18.12;60.18;99711.72;4413741;32;20047;-93
2022/09/01 03:53:03;;;;;;;;;;;;;;;18.03;60.17;99706.13;4425388;32;20354;-93
2022/09/01 03:55:30;;;;;;;;;;;;;;;18.15;60.17;99706.25;4426441;32;20009;-95
2022/09/01 03:57:56;;;;;;;;;;;;;;;18.09;60.17;99712.78;4424392;32;19954;-95
2022/09/01 04:00:22;;;;;;;;;;;;;;;18.06;60.17;99710.34;4411626;32;19992;-91
2022/09/01 04:02:50;;;;;;;;;;;;;;;18.20;60.18;99709.44;4435288;32;20286;-90
2022/09/01 04:05:17;;;;;;;;;;;;;;;18.29;60.18;99704.44;4424629;32;20363;-89
2022/09/01 04:07:44;;;;;;;;;;;;;;;18.29;60.18;99708.88;4411618;32;20279;-91
2022/09/01 04:10:10;;;;;;;;;;;;;;;18.16;60.18;99702.69;4425426;32;20028;-91
2022/09/01 04:12:36;;;;;;;;;;;;;;;18.32;60.19;99706.88;4425964;32;20271;-93
2022/09/01 04:15:01;;;;;;;;;;;;;;;18.25;60.18;99705.59;4413070;32;20008;-91
2022/09/01 04:20:10;;;;;;;;;;;;;;;18.21;60.17;99703.22;4427260;32;20023;-91
2022/09/01 04:22:36;;;;;;;;;;;;;;;18.14;60.17;99692.25;4439125;32;25889;-92
2022/09/01 04:25:01;;;;;;;;;;;;;;;18.14;60.17;99692.25;4413633;32;20004;-92
2022/09/01 04:27:27;;;;;;;;;;;;;;;17.98;60.16;99694.16;4410390;32;20315;-92
2022/09/01 04:29:53;;;;;;;;;;;;;;;17.93;60.17;99696.25;4421352;32;19992;-92
2022/09/01 04:32:20;;;;;;;;;;;;;;;17.99;60.16;99706.41;4415834;32;21609;-95
2022/09/01 04:34:45;;;;;;;;;;;;;;;17.90;60.16;99707.81;4426210;32;19974;-94
2022/09/01 04:37:12;;;;;;;;;;;;;;;18.01;60.17;99713.28;4425224;32;20035;-92
2022/09/01 04:39:37;;;;;;;;;;;;;;;17.90;60.16;99720.97;4410453;32;20339;-93
2022/09/01 04:42:07;;;;;;;;;;;;;;;17.84;60.15;99718.75;4412158;32;20015;-92
2022/09/01 04:44:33;;;;;;;;;;;;;;;17.96;60.17;99717.97;4426389;32;20005;-92
2022/09/01 04:46:59;;;;;;;;;;;;;;;18.02;60.17;99722.88;4411705;32;20056;-91
2022/09/01 04:49:25;;;;;;;;;;;;;;;17.95;60.16;99718.91;4424393;32;20033;-91
2022/09/01 04:51:51;;;;;;;;;;;;;;;18.12;60.17;99698.56;4411613;32;20023;-91
2022/09/01 04:54:16;;;;;;;;;;;;;;;18.32;60.19;99711.31;4411742;32;19986;-90
2022/09/01 04:56:43;;;;;;;;;;;;;;;18.08;60.17;99711.09;4411174;32;20060;-90
2022/09/01 04:59:09;;;;;;;;;;;;;;;18.09;60.17;99712.78;4413620;32;19982;-91
2022/09/01 05:01:41;;;;;;;;;;;;;;;18.15;60.17;99716.81;4423859;32;20052;-91
2022/09/01 05:04:07;;;;;;;;;;;;;;;18.00;60.17;99724.75;4425143;32;20029;-91
2022/09/01 05:06:33;;;;;;;;;;;;;;;18.18;60.18;99727.97;4440376;32;20220;-89
2022/09/01 05:08:58;;;;;;;;;;;;;;;18.10;60.17;99731.12;4413575;32;19965;-90
2022/09/01 05:11:24;;;;;;;;;;;;;;;18.06;60.17;99740.16;4426498;32;19985;-92
2022/09/01 05:13:50;;;;;;;;;;;;;;;18.13;60.17;99742.41;4414148;32;19993;-91
2022/09/01 05:16:18;;;;;;;;;;;;;;;18.10;60.17;99741.66;4415105;32;20016;-90
2022/09/01 05:18:47;;;;;;;;;;;;;;;17.99;60.16;99741.50;4423319;32;19995;-92
2022/09/01 05:21:15;;;;;;;;;;;;;;;18.10;60.17;99740.81;4420099;32;19975;-89
2022/09/01 05:23:41;;;;;;;;;;;;;;;18.05;60.16;99733.19;4414263;32;19997;-89
2022/09/01 05:26:16;;;;;;;;;;;;;;;17.90;60.16;99728.03;4416945;32;19989;-90
2022/09/01 05:28:42;;;;;;;;;;;;;;;18.03;60.16;99723.72;4422890;32;20550;-91
2022/09/01 05:31:08;;;;;;;;;;;;;;;18.28;60.18;99723.00;4411509;32;19992;-92
2022/09/01 05:33:35;;;;;;;;;;;;;;;18.02;60.17;99725.50;4424145;32;20967;-91
2022/09/01 05:36:06;;;;;;;;;;;;;;;17.94;60.17;99733.00;4412051;32;20005;-91
2022/09/01 05:38:32;;;;;;;;;;;;;;;18.05;60.17;99735.00;4412918;32;20086;-92
2022/09/01 05:41:00;;;;;;;;;;;;;;;18.05;60.17;99738.47;4426427;32;19978;-92
2022/09/01 05:43:28;;;;;;;;;;;;;;;17.96;60.16;99733.75;4413623;32;20039;-93
2022/09/01 05:45:58;;;;;;;;;;;;;;;18.15;60.17;99740.50;4413465;32;20012;-92
2022/09/01 05:48:23;;;;;;;;;;;;;;;18.17;60.18;99736.00;4412721;32;19977;-91
2022/09/01 05:50:49;;;;;;;;;;;;;;;18.25;60.18;99737.22;4412555;32;20025;-90
2022/09/01 05:53:17;;;;;;;;;;;;;;;18.33;60.18;99736.72;4424814;32;20353;-90
2022/09/01 05:55:45;;;;;;;;;;;;;;;18.24;60.18;99737.31;4438472;32;19985;-91
2022/09/01 05:58:15;;;;;;;;;;;;;;;18.29;60.18;99735.22;4408717;32;19974;-90
2022/09/01 06:00:45;;;;;;;;;;;;;;;18.35;60.18;99732.19;4418752;32;19989;-90
2022/09/01 06:03:13;;;;;;;;;;;;;;;18.44;60.19;99736.84;4412227;32;19998;-91
2022/09/01 06:05:38;;;;;;;;;;;;;;;18.49;60.19;99723.41;4412839;32;20357;-91
2022/09/01 06:08:04;;;;;;;;;;;;;;;18.44;60.19;99722.81;4412123;32;19997;-91
2022/09/01 06:10:29;;;;;;;;;;;;;;;18.44;60.18;99725.47;4423335;32;19992;-90
2022/09/01 06:12:55;;;;;;;;;;;;;;;18.28;60.17;99720.34;4424210;32;20037;-89
2022/09/01 06:15:23;;;;;;;;;;;;;;;18.32;60.18;99727.13;4423338;32;19985;-89
2022/09/01 06:17:48;;;;;;;;;;;;;;;18.10;60.17;99735.53;4411470;32;20052;-89
2022/09/01 06:20:17;;;;;;;;;;;;;;;18.07;60.17;99741.00;4413528;32;20336;-89
2022/09/01 06:22:43;;;;;;;;;;;;;;;18.23;60.18;99736.47;4412486;32;19989;-90
2022/09/01 06:25:08;;;;;;;;;;;;;;;18.16;60.18;99747.47;4425556;32;19996;-91
2022/09/01 06:27:37;;;;;;;;;;;;;;;18.38;60.18;99734.63;4425200;32;19977;-89
2022/09/01 06:30:03;;;;;;;;;;;;;;;18.51;60.19;99739.97;4425937;32;19974;-91
2022/09/01 06:32:28;;;;;;;;;;;;;;;18.59;60.19;99735.88;4425732;32;20277;-90
2022/09/01 06:34:56;;;;;;;;;;;;;;;18.51;60.19;99740.81;4425329;32;19989;-90
2022/09/01 06:37:22;;;;;;;;;;;;;;;18.65;60.20;99740.75;4426367;32;19970;-90
2022/09/01 06:39:47;;;;;;;;;;;;;;;18.62;60.20;99748.87;4425384;32;27045;-90
2022/09/01 06:42:14;;;;;;;;;;;;;;;18.54;60.20;99745.88;4426403;32;20018;-91
2022/09/01 06:44:39;;;;;;;;;;;;;;;18.69;60.20;99754.59;4413667;32;20149;-88
2022/09/01 06:47:06;;;;;;;;;;;;;;;18.71;60.21;99750.09;4440970;32;20424;-88
2022/09/01 06:49:31;;;;;;;;;;;;;;;18.76;60.20;99749.78;4415480;32;20040;-88
2022/09/01 06:52:01;;;;;;;;;;;;;;;19.01;60.22;99753.34;4418958;32;19993;-88
2022/09/01 06:54:28;;;;;;;;;;;;;;;18.97;60.21;99751.84;4425125;32;20001;-89
2022/09/01 06:56:54;;;;;;;;;;;;;;;19.16;60.23;99754.06;4428197;32;19974;-89
2022/09/01 06:59:19;;;;;;;;;;;;;;;19.27;60.23;99753.38;4413524;32;19965;-89
2022/09/01 07:01:47;;;;;;;;;;;;;;;19.38;60.23;99752.62;4412170;32;19982;-91
2022/09/01 07:04:17;;;;;;;;;;;;;;;19.32;60.23;99765.28;4424925;32;19993;-92
2022/09/01 07:06:43;;;;;;;;;;;;;;;19.44;60.23;99763.63;4427016;32;19981;-90
2022/09/01 07:09:08;;;;;;;;;;;;;;;19.60;60.24;99774.00;4440422;32;20064;-92
2022/09/01 07:11:34;;;;;;;;;;;;;;;19.30;60.23;99777.75;4418290;32;19993;-92
2022/09/01 07:14:03;;;;;;;;;;;;;;;19.30;60.23;99772.47;4421179;32;19961;-92
2022/09/01 07:16:29;;;;;;;;;;;;;;;19.29;60.23;99770.78;4416275;32;19997;-91
2022/09/01 07:18:59;;;;;;;;;;;;;;;19.28;60.23;99773.53;4414095;32;20045;-92
2022/09/01 07:21:24;;;;;;;;;;;;;;;19.11;60.22;99772.03;4413438;32;19990;-93
2022/09/01 07:23:50;;;;;;;;;;;;;;;19.26;60.23;99770.16;4425844;32;19994;-92
2022/09/01 07:26:18;;;;;;;;;;;;;;;19.30;60.23;99771.63;4413068;32;20258;-93
2022/09/01 07:28:46;;;;;;;;;;;;;;;19.31;60.23;99776.81;4425471;32;19974;-92
2022/09/01 07:31:30;;;;;;;;;;;;;;;19.60;60.25;99774.84;4413182;32;19996;-93
2022/09/01 07:33:57;;;;;;;;;;;;;;;19.39;60.24;99780.72;4413642;32;20005;-92
2022/09/01 07:36:25;;;;;;;;;;;;;;;19.22;60.22;99784.50;4412943;32;20347;-90
2022/09/01 07:38:53;;;;;;;;;;;;;;;19.35;60.23;99788.00;4413177;32;20028;-92
2022/09/01 07:41:23;;;;;;;;;;;;;;;19.36;60.23;99775.66;4426165;32;20326;-93
2022/09/01 07:43:50;;;;;;;;;;;;;;;19.51;60.24;99783.38;4413132;32;20001;-92
2022/09/01 07:46:15;;;;;;;;;;;;;;;19.61;60.24;99783.62;4426257;32;20026;-93
2022/09/01 07:48:41;;;;;;;;;;;;;;;19.73;60.26;99774.00;4413381;32;19981;-93
2022/09/01 07:51:06;;;;;;;;;;;;;;;19.78;60.26;99767.47;4412051;32;28371;-93
2022/09/01 07:53:32;;;;;;;;;;;;;;;19.88;60.26;99760.59;4413666;32;20290;-94
2022/09/01 07:55:59;;;;;;;;;;;;;;;19.97;60.27;99772.31;4413142;32;19982;-93
2022/09/01 07:58:25;;;;;;;;;;;;;;;19.89;60.26;99778.13;4425641;32;20043;-92
2022/09/01 08:00:52;;;;;;;;;;;;;;;20.17;60.28;99777.03;4412664;32;20039;-92
2022/09/01 08:03:17;;;;;;;;;;;;;;;20.10;60.27;99767.81;4412681;32;20005;-92
2022/09/01 08:05:43;;;;;;;;;;;;;;;20.29;60.28;99777.94;4412441;32;19973;-94
2022/09/01 08:08:08;;;;;;;;;;;;;;;20.24;60.29;99774.78;4412417;32;20356;-92
2022/09/01 08:10:33;;;;;;;;;;;;;;;20.39;60.28;99778.13;4413255;32;20000;-91
2022/09/01 08:12:59;;;;;;;;;;;;;;;20.12;60.28;99770.38;4412712;32;20346;-91
2022/09/01 08:15:24;;;;;;;;;;;;;;;20.26;60.28;99777.31;4426210;32;20023;-92
2022/09/01 08:17:49;;;;;;;;;;;;;;;20.36;60.29;99773.06;4413229;32;20347;-93
2022/09/01 08:20:14;;;;;;;;;;;;;;;20.31;60.28;99785.75;4414113;32;20035;-93
2022/09/01 08:22:40;;;;;;;;;;;;;;;20.58;60.30;99782.94;4415002;32;19989;-90
2022/09/01 08:25:06;;;;;;;;;;;;;;;20.62;60.30;99779.16;4415591;32;20307;-91
2022/09/01 08:27:32;;;;;;;;;;;;;;;20.64;60.30;99775.44;4426788;32;20054;-93
2022/09/01 08:29:59;;;;;;;;;;;;;;;20.50;60.30;99778.22;4416140;32;19989;-92
2022/09/01 08:32:24;;;;;;;;;;;;;;;20.70;60.30;99779.41;4426097;32;20048;-91
2022/09/01 08:34:50;;;;;;;;;;;;;;;20.68;60.30;99784.81;4411491;32;20364;-91
2022/09/01 08:37:15;;;;;;;;;;;;;;;20.70;60.31;99782.91;4411523;32;20027;-91
2022/09/01 08:39:45;;;;;;;;;;;;;;;20.79;60.31;99789.31;4411150;32;19989;-92
2022/09/01 08:42:13;;;;;;;;;;;;;;;20.66;60.30;99786.75;4411039;32;20005;-92
2022/09/01 08:45:01;;;;;;;;;;;;;;;20.74;60.31;99786.16;4425261;32;20747;-94
2022/09/01 08:47:26;;;;;;;;;;;;;;;20.73;60.31;99798.56;4425777;32;20357;-92
2022/09/01 08:49:52;;;;;;;;;;;;;;;20.71;60.31;99796.97;4412245;32;24998;-92
2022/09/01 08:52:23;;;;;;;;;;;;;;;20.66;60.30;99796.47;4411875;32;19977;-93
2022/09/01 08:54:49;;;;;;;;;;;;;;;20.89;60.32;99795.63;4425408;32;20290;-91
2022/09/01 08:57:19;;;;;;;;;;;;;;;20.99;60.32;99793.97;4412459;32;20057;-91
2022/09/01 08:59:44;;;;;;;;;;;;;;;21.02;60.31;99795.56;4411659;32;20012;-92
2022/09/01 09:02:10;;;;;;;;;;;;;;;20.92;60.31;99789.25;4411890;32;20001;-92
2022/09/01 09:04:35;;;;;;;;;;;;;;;21.01;60.33;99792.06;4425218;32;19981;-91
2022/09/01 09:07:01;;;;;;;;;;;;;;;21.20;60.33;99791.53;4430768;32;20251;-93
2022/09/01 09:09:31;;;;;;;;;;;;;;;21.32;60.33;99795.09;4444204;32;20017;-92
2022/09/01 09:12:11;;;;;;;;;;;;;;;21.32;60.33;99789.81;4413132;32;20059;-93
2022/09/01 09:14:56;;;;;;;;;;;;;;;21.51;60.35;99787.44;4424955;32;20768;-92
2022/09/01 09:17:22;;;;;;;;;;;;;;;21.66;60.36;99782.75;4438796;32;20008;-92
2022/09/01 09:19:47;;;;;;;;;;;;;;;21.47;60.34;99779.84;4425213;32;19974;-92
2022/09/01 09:22:13;;;;;;;;;;;;;;;21.67;60.35;99777.34;4412079;32;19997;-93
2022/09/01 09:24:51;;;;;;;;;;;;;;;21.84;60.37;99769.91;4424663;32;19985;-92
2022/09/01 09:27:16;;;;;;;;;;;;;;;22.11;60.38;99767.75;4424446;32;20005;-93
2022/09/01 09:29:42;;;;;;;;;;;;;;;22.11;60.38;99761.59;4424898;32;20004;-91
2022/09/01 09:32:07;;;;;;;;;;;;;;;22.09;60.38;99761.72;4412386;32;20008;-92
2022/09/01 09:34:34;;;;;;;;;;;;;;;22.37;60.39;99766.50;4411949;32;20255;-93
2022/09/01 09:36:59;;;;;;;;;;;;;;;22.29;60.39;99755.69;4412055;32;19973;-92
2022/09/01 09:39:25;;;;;;;;;;;;;;;22.18;60.38;99758.34;4411952;32;19985;-93
2022/09/01 09:42:07;;;;;;;;;;;;;;;22.06;60.38;99761.97;4411484;32;19993;-93
2022/09/01 09:44:42;;;;;;;;;;;;;;;22.26;60.39;99755.94;4424942;32;20305;-91
2022/09/01 09:47:07;;;;;;;;;;;;;;;22.05;60.37;99757.66;4412173;32;20385;-92
2022/09/01 09:49:33;;;;;;;;;;;;;;;22.20;60.39;99756.41;4412294;32;19985;-93
2022/09/01 09:52:02;;;;;;;;;;;;;;;22.37;60.39;99758.56;4414294;32;20291;-93
2022/09/01 09:54:30;;;;;;;;;;;;;;;22.34;60.40;99758.81;4427940;32;20707;-93
2022/09/01 09:57:18;;;;;;;;;;;;;;;22.42;60.40;99752.03;4415659;32;19985;-91
2022/09/01 09:59:45;;;;;;;;;;;;;;;22.47;60.40;99748.03;4420126;32;19969;-92
2022/09/01 10:02:13;;;;;;;;;;;;;;;22.20;60.39;99750.25;4426344;32;20279;-90
2022/09/01 10:04:45;;;;;;;;;;;;;;;22.08;60.38;99751.25;4441920;32;19978;-92
2022/09/01 10:07:33;;;;;;;;;;;;;;;22.14;60.38;99748.94;4426505;32;19982;-90
2022/09/01 10:10:03;;;;;;;;;;;;;;;21.95;60.38;99752.19;4413411;32;20001;-91
2022/09/01 10:12:28;;;;;;;;;;;;;;;21.92;60.37;99749.78;4426480;32;20001;-90
2022/09/01 10:14:56;;;;;;;;;;;;;;;21.91;60.36;99750.75;4440374;32;20060;-90
2022/09/01 10:17:28;;;;;;;;;;;;;;;22.03;60.38;99751.59;4440498;32;19988;-90
2022/09/01 10:20:01;;;;;;;;;;;;;;;22.24;60.38;99749.91;4413288;32;19985;-90
2022/09/01 10:22:26;;;;;;;;;;;;;;;22.30;60.39;99746.75;4427070;32;20004;-90
2022/09/01 10:24:52;;;;;;;;;;;;;;;22.45;60.40;99739.34;4413063;32;19985;-90
2022/09/01 10:27:18;;;;;;;;;;;;;;;22.40;60.39;99735.41;4425861;32;19999;-89
2022/09/01 10:29:45;;;;;;;;;;;;;;;22.41;60.41;99743.22;4425969;32;20117;-88
2022/09/01 10:32:12;;;;;;;;;;;;;;;22.48;60.40;99746.25;4413320;32;20024;-89
2022/09/01 10:34:38;;;;;;;;;;;;;;;22.35;60.40;99736.63;4413165;32;19988;-90
2022/09/01 10:37:03;;;;;;;;;;;;;;;22.49;60.40;99730.22;4412063;32;20255;-88
2022/09/01 10:39:29;;;;;;;;;;;;;;;22.62;60.41;99730.03;4412321;32;19982;-91
2022/09/01 10:41:55;;;;;;;;;;;;;;;22.64;60.42;99728.09;4412330;32;26724;-92
2022/09/01 10:44:35;;;;;;;;;;;;;;;22.65;60.42;99725.31;4412985;32;19969;-89
2022/09/01 10:47:09;;;;;;;;;;;;;;;22.79;60.42;99732.13;4440047;32;19985;-90
2022/09/01 10:49:34;;;;;;;;;;;;;;;22.82;60.42;99731.91;4426137;32;20005;-91
2022/09/01 10:52:00;;;;;;;;;;;;;;;22.98;60.44;99726.19;4440080;32;19973;-87
2022/09/01 10:54:40;;;;;;;;;;;;;;;23.00;60.43;99723.41;4425416;32;20500;-88
2022/09/01 10:57:09;;;;;;;;;;;;;;;23.18;60.45;99722.66;4425861;32;20338;-88
2022/09/01 10:59:43;;;;;;;;;;;;;;;23.33;60.44;99717.88;4443897;32;19968;-90
2022/09/01 11:02:08;;;;;;;;;;;;;;;23.44;60.45;99722.28;4433075;32;20001;-87
2022/09/01 11:04:36;;;;;;;;;;;;;;;23.23;60.44;99715.16;4440570;32;19990;-87
2022/09/01 11:07:03;;;;;;;;;;;;;;;23.34;60.44;99716.91;4426386;32;19996;-87
2022/09/01 11:09:35;;;;;;;;;;;;;;;23.45;60.45;99714.19;4440316;32;20001;-88
2022/09/01 11:12:13;;;;;;;;;;;;;;;23.57;60.47;99721.09;4412907;32;19994;-88
2022/09/01 11:14:50;;;;;;;;;;;;;;;23.72;60.46;99718.13;4426152;32;20014;-89
2022/09/01 11:17:25;;;;;;;;;;;;;;;23.89;60.49;99717.47;4440494;32;19983;-88
2022/09/01 11:20:00;;;;;;;;;;;;;;;23.88;60.47;99713.13;4425710;32;20004;-89
2022/09/01 11:22:26;;;;;;;;;;;;;;;24.13;60.50;99710.00;4426305;32;19997;-87
2022/09/01 11:25:05;;;;;;;;;;;;;;;24.26;60.49;99711.56;4440357;32;20271;-88
2022/09/01 11:27:48;;;;;;;;;;;;;;;24.29;60.50;99708.66;4440666;32;19985;-89
2022/09/01 11:30:17;;;;;;;;;;;;;;;24.27;60.49;99716.72;4427309;32;20005;-90
2022/09/01 11:32:43;;;;;;;;;;;;;;;24.22;60.49;99711.00;4415390;32;19989;-88
2022/09/01 11:35:18;;;;;;;;;;;;;;;24.12;60.48;99718.09;4444223;32;20027;-86
2022/09/01 11:37:47;;;;;;;;;;;;;;;24.16;60.49;99700.91;4427156;32;19997;-90
2022/09/01 11:40:18;;;;;;;;;;;;;;;24.12;60.49;99710.09;4413528;32;20057;-87
2022/09/01 11:42:44;;;;;;;;;;;;;;;24.14;60.50;99710.84;4426205;32;19998;-89
2022/09/01 11:45:16;;;;;;;;;;;;;;;24.28;60.50;99707.81;4439984;32;20019;-90
2022/09/01 11:47:45;;;;;;;;;;;;;;;24.48;60.51;99698.03;4425140;32;19970;-87
2022/09/01 11:50:20;;;;;;;;;;;;;;;24.50;60.51;99701.41;4413253;32;19993;-88
2022/09/01 11:52:52;;;;;;;;;;;;;;;24.62;60.52;99702.97;4440198;32;20007;-89
2022/09/01 11:55:26;;;;;;;;;;;;;;;24.60;60.52;99698.72;4425802;32;19985;-88
2022/09/01 11:57:51;;;;;;;;;;;;;;;24.67;60.51;99695.38;4397574;32;895653;-89
2022/09/01 12:00:23;;;;;;;;;;;;;;;24.72;60.53;99690.47;4425851;32;19985;-88
2022/09/01 12:02:49;;;;;;;;;;;;;;;24.79;60.53;99691.59;4439991;32;19989;-88
2022/09/01 12:05:23;;;;;;;;;;;;;;;24.79;60.53;99690.75;4425320;32;19988;-88
2022/09/01 12:07:52;;;;;;;;;;;;;;;24.91;60.54;99683.47;4425058;32;20001;-88
2022/09/01 12:10:21;;;;;;;;;;;;;;;25.13;60.54;99682.34;4426056;32;19973;-87
2022/09/01 12:12:46;;;;;;;;;;;;;;;25.27;60.55;99681.87;4425301;32;19989;-87
2022/09/01 12:15:17;;;;;;;;;;;;;;;25.18;60.55;99683.59;4412278;32;20027;-89
2022/09/01 12:17:43;;;;;;;;;;;;;;;25.39;60.56;99672.72;4439779;32;20001;-88
2022/09/01 12:20:17;;;;;;;;;;;;;;;25.55;60.57;99675.63;4439072;32;28820;-88
2022/09/01 12:22:42;;;;;;;;;;;;;;;25.44;60.56;99675.78;4424595;32;20422;-89
2022/09/01 12:25:14;;;;;;;;;;;;;;;25.41;60.56;99681.41;4424723;32;26284;-88
2022/09/01 12:27:39;;;;;;;;;;;;;;;25.35;60.56;99674.84;4412025;32;19992;-88
2022/09/01 12:30:04;;;;;;;;;;;;;;;25.44;60.56;99665.13;4424732;32;20011;-86
2022/09/01 12:32:30;;;;;;;;;;;;;;;25.53;60.58;99684.72;4412539;32;20013;-88
2022/09/01 12:35:02;;;;;;;;;;;;;;;25.46;60.57;99668.50;4425530;32;19969;-88
2022/09/01 12:37:27;;;;;;;;;;;;;;;25.52;60.56;99670.56;4425136;32;19996;-87
2022/09/01 12:39:53;;;;;;;;;;;;;;;25.54;60.57;99673.06;4425046;32;19993;-86
2022/09/01 12:42:18;;;;;;;;;;;;;;;25.48;60.57;99671.00;4412616;32;20413;-88
2022/09/01 12:44:49;;;;;;;;;;;;;;;25.54;60.57;99663.25;4439429;32;19978;-88
2022/09/01 12:47:34;;;;;;;;;;;;;;;25.88;60.58;99676.91;4439454;32;19967;-87
2022/09/01 12:50:00;;;;;;;;;;;;;;;25.99;60.59;99673.16;4439865;32;20037;-88
2022/09/01 12:52:28;;;;;;;;;;;;;;;25.90;60.59;99672.25;4429738;32;20009;-87
2022/09/01 12:54:57;;;;;;;;;;;;;;;25.78;60.59;99668.09;4437027;32;19956;-89